METAR Data
IDs: Format: Raw Decoded Include TAF

Data at: 2215 UTC 01 Oct 2022

LIMC 012150Z 34003KT 270V010 CAVOK 13/11 Q1018 NOSIG

TAF LIMC 011700Z 0118/0224 VRB05KT CAVOK

LIME 012150Z VRB02KT CAVOK 13/11 Q1017 NOSIG

TAF LIME 011700Z 0118/0218 26010KT 9999 SCT030
  BECMG 0118/0120 34007KT
  BECMG 0207/0209 15010KT


LIMF 012150Z 31004KT CAVOK 14/12 Q1018

TAF LIMF 011700Z 0118/0218 VRB05KT CAVOK
  TEMPO 0123/0206 3000 BR


LIMG 011750Z 05004KT 020V080 CAVOK 18/12 Q1016

TAF LIMG 011100Z 0112/0212 VRB06KT 9999 SCT040

LIMJ 012150Z 03004KT 9999 FEW028 17/12 Q1019

TAF LIMJ 011700Z 0118/0218 16010KT 9999 FEW030
  BECMG 0120/0122 01007KT
  BECMG 0208/0210 14010KT


LIML 012150Z 26005KT 220V290 CAVOK 16/11 Q1017 NOSIG

TAF LIML 011700Z 0118/0218 28010KT CAVOK
  BECMG 0118/0120 VRB05KT
  PROB30
  TEMPO 0202/0206 3000 BR


LIMP 012150Z 22006KT 190V250 CAVOK 15/09 Q1017

TAF LIMP 011700Z 0118/0218 29010KT CAVOK
  BECMG 0120/0122 VRB05KT
  TEMPO 0200/0206 3000 BR


LIPA 011755Z 01006KT 9999 SCT035 16/14 Q1013 RMK SCT VIS MIN 9999 WIND THR05 /////KT WIND THR23 /////KT A2994 BLU

TAF LIPA 011700Z 0118/0203 03005KT 9999 SCT030 SCT080

LIPB 012050Z VRB01KT 9999 SCT120 13/12 Q1017

TAF LIPB 011700Z 0118/0218 VRB05KT 9999 SCT050

LIPC 012155Z 23004KT CAVOK 16/10 Q1017 RMK SKC VIS MIN 9999 WIND THR11 23004KT WIND THR29 23002KT BLU

TAF LIPC 012000Z 0121/0206 30008KT CAVOK

LIPH 012150Z AUTO VRB01KT 9999 NCD 13/12 Q1016

TAF LIPH 011700Z 0118/0218 25010KT 9999 FEW030
  BECMG 0118/0120 VRB05KT


LIPI 012155Z /////KT CAVOK 14/12 Q1016 RMK SKC VIS MIN 9999 WIND THR06 06006KT WIND THR24 04006KT BLU
No TAF found for LIPI

LIPK 012050Z 24005KT CAVOK 17/05 Q1017

TAF LIPK 011700Z 0118/0218 24012KT 9999 FEW025
  BECMG 0119/0121 VRB05KT
  BECMG 0208/0210 24010KT


LIPL 012155Z 26006KT CAVOK 15/13 Q1016 RMK SKC VIS MIN 9999 WIND THR31 26007KT WIND THR13 26006KT BLU

TAF LIPL 012000Z 0121/0206 29007KT CAVOK
  PROB40
  TEMPO 0200/0206 5000 BR SCT010


LIPO 012150Z AUTO 24010KT 9999 NCD 15/12 Q1017

TAF LIPO 011700Z 0118/0218 27012KT CAVOK
  BECMG 0120/0122 VRB05KT
  PROB30
  TEMPO 0200/0206 3000 BR


LIPQ 012150Z AUTO 10004KT 9999 NCD 14/13 Q1016

TAF LIPQ 011700Z 0118/0218 VRB05KT 9999 SCT030

LIPR 012150Z AUTO VRB01KT 9999 NCD 13/11 Q1017

TAF LIPR 011700Z 0118/0218 23008KT 9999 FEW050

LIPZ 012150Z 27005KT 220V020 CAVOK 16/12 Q1016 NOSIG

TAF LIPZ 011700Z 0118/0224 25012KT CAVOK
  BECMG 0118/0120 VRB05KT


LIRP 012145Z 23016KT 9999 BKN025 18/14 Q1021 NOSIG

TAF LIRP 011700Z 0118/0218 25012KT 9999 SCT030
  BECMG 0123/0201 15008KT
  TEMPO 0204/0206 VRB03KT 5000 BR FEW010
  BECMG 0211/0213 25010KT 9999 BKN025


LFKB 012200Z AUTO 20005KT 160V240 9999 FEW058 17/11 Q1020 NOSIG

TAF LFKB 012000Z 0121/0221 24004KT 9999 FEW050 TX26/0213Z TN14/0204Z
  BECMG 0209/0211 12008KT
  BECMG 0219/0221 24004KT


LFKC 012200Z AUTO 18016KT 150V210 9999 BKN040 BKN062 21/13 Q1022

TAF LFKC 011400Z 0115/0215 20020G30KT CAVOK TX26/0214Z TN19/0204Z
  TEMPO 0119/0122 BKN020
  BECMG 0122/0124 20015KT
  BECMG 0205/0207 21020G30KT


LFKJ 012200Z AUTO 04006KT 9999 SCT039 18/13 Q1024 NOSIG

TAF LFKJ 012000Z 0121/0221 05005KT 9999 FEW018 BKN025
  BECMG 0209/0212 30010KT CAVOK
  BECMG 0216/0218 30005KT
  BECMG 0218/0220 05005KT


LFLL 012200Z 18009KT 9999 BKN038 16/11 Q1024 TEMPO 3000 DZ

TAF LFLL 011700Z 0118/0224 17007KT 9999 BKN045
  PROB30
  TEMPO 0121/0201 3000 DZ
  BECMG 0212/0214 36007KT FEW030


LFML 012200Z AUTO VRB01KT CAVOK 17/14 Q1024 NOSIG

TAF LFML 012000Z 0121/0303 28008KT CAVOK TX25/0214Z TN14/0204Z
  BECMG 0300/0302 34015G30KT


LFMN 012200Z 32006KT CAVOK 17/12 Q1018 NOSIG

TAF LFMN 012000Z 0121/0303 34010KT CAVOK
  TEMPO 0121/0124 10010KT
  PROB30
  TEMPO 0205/0209 BKN014
  BECMG 0206/0208 VRB05KT
  BECMG 0210/0212 10010KT
  BECMG 0216/0218 VRB03KT
  TEMPO 0218/0303 BKN014
  BECMG 0221/0223 34010KT


LOWI 012150Z AUTO VRB02KT 3100 -RA FEW004 BKN022 11/11 Q1021 RERA

TAF LOWI 011715Z 0118/0218 VRB02KT 9999 -RA BKN040 TX16/0214Z TN11/0118Z
  TEMPO 0118/0207 RA SCT005 BKN012


LOWL 012150Z AUTO 26014KT 9999 RA FEW038 SCT050 BKN060 13/11 Q1016

TAF LOWL 011715Z 0118/0218 28008KT 9999 -SHRA BKN030 TX14/0211Z TN11/0120Z
  PROB30
  TEMPO 0122/0201 28015G25KT SHRA
  TEMPO 0212/0218 RA OVC014


LOWW 012150Z 28020KT 9999 FEW045 15/09 Q1014 NOSIG

TAF LOWW 012015Z 0121/0303 28012KT 9999 FEW040 TX18/0212Z TN13/0205Z
  PROB30
  TEMPO 0121/0204 28025G35KT
  TEMPO 0121/0218 28015G25KT
  PROB30
  TEMPO 0209/0212 SHRA


LSGG 012150Z AUTO VRB03KT 9999 -RA FEW027 BKN033 13/12 Q1024 NOSIG

TAF LSGG 012025Z 0121/0303 23005KT 9999 SCT010 BKN035 TX20/0214Z TN12/0205Z
  PROB40
  TEMPO 0121/0206 RA SCT005 BKN014


LSZH 012150Z AUTO 24007KT 9999 RADZ FEW009 SCT024 BKN030 13/12 Q1022

TAF LSZH 012025Z 0121/0303 25010KT 9999 FEW008 SCT012 BKN040 TX19/0214Z TN12/0205Z
  TEMPO 0121/0210 4000 RA BR BKN014
  BECMG 0121/0123 22005KT
  BECMG 0209/0212 26010KT
  PROB40
  TEMPO 0211/0216 27015G25KT
  BECMG 0218/0220 24006KT
  TEMPO 0219/0224 RA
  BECMG 0222/0301 VRB02KT 4000 BR BKN014